Time;durP1;ratioP1;P1;durP2;ratioP2;P2;SDS_P1;SDS_P2;PMS_P1;PMS_P2;Temp;Humidity;BMP_temperature;BMP_pressure;BME280_temperature;BME280_humidity;BME280_pressure;Samples;Min_cycle;Max_cycle;Signal;HPM_P1;HPM_P2
2022/08/25 00:04:21;;;;;;;;;;;;;;;22.48;56.77637;101835.5;;;;-75
2022/08/25 00:09:21;;;;;;;;;;;;;;;22.44;56.94238;101829;;;;-74
2022/08/25 00:14:21;;;;;;;;;;;;;;;22.4;56.9375;101826;;;;-75
2022/08/25 00:16:25;;;;;;;6;4.5;;;;;;;;;;;;;-73
2022/08/25 00:19:22;;;;;;;;;;;;;;;22.36;56.8291;101821.8;;;;-77
2022/08/25 00:24:23;;;;;;;;;;;;;;;22.32;56.78906;101818.8;;;;-76
2022/08/25 00:29:21;;;;;;;;;;;;;;;22.25;56.78125;101811.2;;;;-74
2022/08/25 00:34:22;;;;;;;;;;;;;;;22.22;56.91406;101803.6;;;;-75
2022/08/25 00:39:21;;;;;;;;;;;;;;;22.17;56.8623;101801;;;;-76
2022/08/25 00:44:21;;;;;;;;;;;;;;;22.13;56.90332;101800.9;;;;-76
2022/08/25 00:46:28;;;;;;;6.5;4.4;;;;;;;;;;;;;-76
2022/08/25 00:49:22;;;;;;;;;;;;;;;22.11;57.12988;101800.7;;;;-74
2022/08/25 00:54:26;;;;;;;;;;;;;;;22.04;57.14355;101802;;;;-75
2022/08/25 00:59:21;;;;;;;;;;;;;;;22;57.10449;101799.1;;;;-76
2022/08/25 01:04:20;;;;;;;;;;;;;;;21.95;57.55371;101795.2;;;;-76
2022/08/25 01:09:21;;;;;;;;;;;;;;;21.94;57.34766;101794.2;;;;-75
2022/08/25 01:14:22;;;;;;;;;;;;;;;21.89;57.36523;101791.1;;;;-75
2022/08/25 01:16:30;;;;;;;6.4;4.7;;;;;;;;;;;;;-75
2022/08/25 01:19:20;;;;;;;;;;;;;;;21.87;57.45313;101788.9;;;;-76
2022/08/25 01:24:23;;;;;;;;;;;;;;;21.81;57.50391;101788.1;;;;-76
2022/08/25 01:29:28;;;;;;;;;;;;;;;21.8;57.2959;101786.8;;;;-75
2022/08/25 01:34:21;;;;;;;;;;;;;;;21.76;57.41602;101782.3;;;;-75
2022/08/25 01:39:20;;;;;;;;;;;;;;;21.74;57.7334;101781.1;;;;-76
2022/08/25 01:44:21;;;;;;;;;;;;;;;21.7;57.38574;101777.8;;;;-76
2022/08/25 01:46:37;;;;;;;6.7;5;;;;;;;;;;;;;-75
2022/08/25 01:49:20;;;;;;;;;;;;;;;21.67;57.46094;101767.9;;;;-74
2022/08/25 01:54:23;;;;;;;;;;;;;;;21.66;57.50586;101765.1;;;;-76
2022/08/25 01:59:24;;;;;;;;;;;;;;;21.63;57.50195;101763;;;;-73
2022/08/25 02:04:20;;;;;;;;;;;;;;;21.62;57.68359;101761;;;;-75
2022/08/25 02:09:21;;;;;;;;;;;;;;;21.62;58.39258;101757.6;;;;-75
2022/08/25 02:14:21;;;;;;;;;;;;;;;21.6;58.38965;101757;;;;-74
2022/08/25 02:16:39;;;;;;;9.4;5.7;;;;;;;;;;;;;-74
2022/08/25 02:19:21;;;;;;;;;;;;;;;21.59;58.42285;101756.4;;;;-74
2022/08/25 02:24:21;;;;;;;;;;;;;;;21.58;58.60449;101755.9;;;;-74
2022/08/25 02:29:20;;;;;;;;;;;;;;;21.57;58.7168;101757.8;;;;-75
2022/08/25 02:34:22;;;;;;;;;;;;;;;21.57;58.625;101752.6;;;;-74
2022/08/25 02:39:20;;;;;;;;;;;;;;;21.57;58.77344;101748.9;;;;-75
2022/08/25 02:44:20;;;;;;;;;;;;;;;21.53;58.63184;101742.9;;;;-75
2022/08/25 02:46:40;;;;;;;9.7;5.8;;;;;;;;;;;;;-75
2022/08/25 02:49:20;;;;;;;;;;;;;;;21.51;58.87988;101739.5;;;;-74
2022/08/25 02:54:21;;;;;;;;;;;;;;;21.5;59.11914;101732.8;;;;-76
2022/08/25 02:59:20;;;;;;;;;;;;;;;21.5;59.11719;101726.2;;;;-75
2022/08/25 03:04:20;;;;;;;;;;;;;;;21.46;59.23828;101723.3;;;;-74
2022/08/25 03:09:21;;;;;;;;;;;;;;;21.45;59.60254;101718.9;;;;-76
2022/08/25 03:14:20;;;;;;;;;;;;;;;21.44;59.16895;101716.7;;;;-75
2022/08/25 03:16:43;;;;;;;8.3;5.9;;;;;;;;;;;;;-75
2022/08/25 03:19:20;;;;;;;;;;;;;;;21.43;59.40625;101712.7;;;;-75
2022/08/25 03:24:20;;;;;;;;;;;;;;;21.36;59.14551;101704.9;;;;-76
2022/08/25 03:29:21;;;;;;;;;;;;;;;21.35;59.09863;101702.5;;;;-75
2022/08/25 03:34:21;;;;;;;;;;;;;;;21.35;59.12109;101703.7;;;;-75
2022/08/25 03:39:21;;;;;;;;;;;;;;;21.33;58.95801;101693.8;;;;-75
2022/08/25 03:44:21;;;;;;;;;;;;;;;21.29;59.0459;101688.6;;;;-76
2022/08/25 03:46:47;;;;;;;8.9;5.2;;;;;;;;;;;;;-77
2022/08/25 03:49:21;;;;;;;;;;;;;;;21.25;59.1084;101684.3;;;;-75
2022/08/25 03:54:22;;;;;;;;;;;;;;;21.23;59.15137;101681.9;;;;-74
2022/08/25 03:59:20;;;;;;;;;;;;;;;21.19;59.16895;101679.1;;;;-75
2022/08/25 04:04:20;;;;;;;;;;;;;;;21.17;59.36035;101677;;;;-74
2022/08/25 04:09:20;;;;;;;;;;;;;;;21.15;59.75586;101669.3;;;;-75
2022/08/25 04:14:21;;;;;;;;;;;;;;;21.14;59.84766;101661.3;;;;-75
2022/08/25 04:16:49;;;;;;;9.3;5.4;;;;;;;;;;;;;-77
2022/08/25 04:19:20;;;;;;;;;;;;;;;21.09;59.54297;101654.9;;;;-75
2022/08/25 04:24:20;;;;;;;;;;;;;;;21.05;59.53809;101649.7;;;;-76
2022/08/25 04:29:22;;;;;;;;;;;;;;;21.04;59.65137;101650.5;;;;-75
2022/08/25 04:34:20;;;;;;;;;;;;;;;21.01;59.71387;101648.8;;;;-76
2022/08/25 04:39:21;;;;;;;;;;;;;;;20.98;59.42676;101641.7;;;;-76
2022/08/25 04:44:20;;;;;;;;;;;;;;;20.96;59.59473;101640.6;;;;-75
2022/08/25 04:46:52;;;;;;;7.2;5.1;;;;;;;;;;;;;-75
2022/08/25 04:49:20;;;;;;;;;;;;;;;20.96;59.74219;101643.6;;;;-76
2022/08/25 04:54:20;;;;;;;;;;;;;;;20.93;59.84082;101647;;;;-76
2022/08/25 04:59:21;;;;;;;;;;;;;;;20.92;59.42969;101651.9;;;;-76
2022/08/25 05:04:24;;;;;;;;;;;;;;;20.92;59.31543;101651.5;;;;-75
2022/08/25 05:09:20;;;;;;;;;;;;;;;20.91;59.08496;101653.3;;;;-75
2022/08/25 05:14:21;;;;;;;;;;;;;;;20.9;58.94727;101654.3;;;;-75
2022/08/25 05:16:54;;;;;;;8.3;4.5;;;;;;;;;;;;;-75
2022/08/25 05:19:21;;;;;;;;;;;;;;;20.9;58.99414;101656.2;;;;-76
2022/08/25 05:24:20;;;;;;;;;;;;;;;20.93;58.81641;101658.8;;;;-76
2022/08/25 05:29:20;;;;;;;;;;;;;;;20.96;58.7168;101655.1;;;;-75
2022/08/25 05:34:21;;;;;;;;;;;;;;;20.98;58.7998;101657.2;;;;-76
2022/08/25 05:39:20;;;;;;;;;;;;;;;21;58.66504;101656.3;;;;-75
2022/08/25 05:44:20;;;;;;;;;;;;;;;21.04;58.53418;101667.7;;;;-75
2022/08/25 05:46:58;;;;;;;6.6;4.1;;;;;;;;;;;;;-75
2022/08/25 05:49:20;;;;;;;;;;;;;;;21.08;58.32129;101672.5;;;;-75
2022/08/25 05:54:20;;;;;;;;;;;;;;;21.14;58.26074;101666.6;;;;-74
2022/08/25 05:59:20;;;;;;;;;;;;;;;21.21;58.11035;101664.9;;;;-76
2022/08/25 06:04:21;;;;;;;;;;;;;;;21.26;57.85547;101662.2;;;;-74
2022/08/25 06:09:20;;;;;;;;;;;;;;;21.35;57.64844;101664.7;;;;-74
2022/08/25 06:14:20;;;;;;;;;;;;;;;21.5;57.40625;101667.7;;;;-75
2022/08/25 06:17:00;;;;;;;6.1;3.9;;;;;;;;;;;;;-75
2022/08/25 06:19:21;;;;;;;;;;;;;;;21.77;56.77734;101671.7;;;;-74
2022/08/25 06:24:20;;;;;;;;;;;;;;;22.01;56.31641;101669.1;;;;-75
2022/08/25 06:29:20;;;;;;;;;;;;;;;22.35;55.35156;101664.1;;;;-76
2022/08/25 06:34:21;;;;;;;;;;;;;;;22.61;54.70801;101665.6;;;;-73
2022/08/25 06:39:20;;;;;;;;;;;;;;;22.86;54.29199;101669.9;;;;-76
2022/08/25 06:44:20;;;;;;;;;;;;;;;23.2;53.57422;101665;;;;-75
2022/08/25 06:47:03;;;;;;;5.4;3.4;;;;;;;;;;;;;-77
2022/08/25 06:49:20;;;;;;;;;;;;;;;23.47;52.84863;101659.5;;;;-74
2022/08/25 06:54:20;;;;;;;;;;;;;;;23.56;52.73242;101658.9;;;;-73
2022/08/25 06:59:20;;;;;;;;;;;;;;;23.7;52.60059;101663.6;;;;-74
2022/08/25 07:04:21;;;;;;;;;;;;;;;24.07;52;101663;;;;-76
2022/08/25 07:09:20;;;;;;;;;;;;;;;24.38;51.4248;101653.4;;;;-75
2022/08/25 07:14:21;;;;;;;;;;;;;;;24.81;50.74707;101660.2;;;;-75
2022/08/25 07:17:07;;;;;;;8.9;3.1;;;;;;;;;;;;;-76
2022/08/25 07:19:21;;;;;;;;;;;;;;;25.18;50.01563;101661.1;;;;-75
2022/08/25 07:24:21;;;;;;;;;;;;;;;25.48;49.61035;101662.3;;;;-74
2022/08/25 07:29:21;;;;;;;;;;;;;;;25.81;48.97559;101658.9;;;;-75
2022/08/25 07:39:20;;;;;;;;;;;;;;;26.41;47.70996;101656.5;;;;-76
2022/08/25 07:44:20;;;;;;;;;;;;;;;26.63;46.80566;101657.6;;;;-75
2022/08/25 07:47:10;;;;;;;5.5;3;;;;;;;;;;;;;-75
2022/08/25 07:49:20;;;;;;;;;;;;;;;26.87;46.18164;101659.4;;;;-75
2022/08/25 07:54:20;;;;;;;;;;;;;;;27.14;45.94238;101654;;;;-75
2022/08/25 07:59:20;;;;;;;;;;;;;;;27.45;45.47461;101653.6;;;;-75
2022/08/25 08:04:21;;;;;;;;;;;;;;;27.77;44.71582;101651.2;;;;-75
2022/08/25 08:09:20;;;;;;;;;;;;;;;28.02;44.10059;101652.8;;;;-76
2022/08/25 08:14:20;;;;;;;;;;;;;;;28.19;43.40625;101648.2;;;;-76
2022/08/25 08:17:15;;;;;;;5.3;2.9;;;;;;;;;;;;;-76
2022/08/25 08:19:21;;;;;;;;;;;;;;;28.42;43.03223;101642.4;;;;-75
2022/08/25 08:24:20;;;;;;;;;;;;;;;28.71;42.48926;101642;;;;-74
2022/08/25 08:29:21;;;;;;;;;;;;;;;29;41.93262;101635.9;;;;-76
2022/08/25 08:34:22;;;;;;;;;;;;;;;29.36;41.69727;101638;;;;-76
2022/08/25 08:39:20;;;;;;;;;;;;;;;29.69;41.31934;101632.6;;;;-75
2022/08/25 08:44:24;;;;;;;;;;;;;;;30.05;40.86133;101631;;;;-75
2022/08/25 08:47:23;;;;;;;5.8;2.8;;;;;;;;;;;;;-76
2022/08/25 08:49:26;;;;;;;;;;;;;;;30.46;40.33496;101628.6;;;;-75
2022/08/25 08:54:24;;;;;;;;;;;;;;;30.74;39.51563;101632;;;;-76
2022/08/25 08:59:21;;;;;;;;;;;;;;;30.96;39.24219;101629.1;;;;-75
2022/08/25 09:04:22;;;;;;;;;;;;;;;31.21;38.90039;101623.7;;;;-77
2022/08/25 09:09:24;;;;;;;;;;;;;;;31.52;38.52734;101630.3;;;;-77
2022/08/25 09:14:27;;;;;;;;;;;;;;;31.79;38.34961;101628;;;;-75
2022/08/25 09:17:27;;;;;;;6.2;3;;;;;;;;;;;;;-77
2022/08/25 09:19:30;;;;;;;;;;;;;;;32.07;38.02051;101626.5;;;;-74
2022/08/25 09:24:29;;;;;;;;;;;;;;;32.38;37.39844;101629.2;;;;-75
2022/08/25 09:29:23;;;;;;;;;;;;;;;32.66;36.90332;101628.8;;;;-75
2022/08/25 09:34:21;;;;;;;;;;;;;;;32.88;36.65039;101626.1;;;;-76
2022/08/25 09:39:20;;;;;;;;;;;;;;;33.09;36.4082;101627;;;;-75
2022/08/25 09:44:24;;;;;;;;;;;;;;;33.32;36.1543;101613.9;;;;-75
2022/08/25 09:47:30;;;;;;;8.3;2.7;;;;;;;;;;;;;-76
2022/08/25 09:49:20;;;;;;;;;;;;;;;33.57;35.71289;101602.2;;;;-76
2022/08/25 09:54:26;;;;;;;;;;;;;;;33.79;35.23438;101602.9;;;;-76
2022/08/25 09:59:27;;;;;;;;;;;;;;;34.06;35.31445;101609.4;;;;-76
2022/08/25 10:04:28;;;;;;;;;;;;;;;34.33;34.68457;101606.7;;;;-75
2022/08/25 10:09:31;;;;;;;;;;;;;;;34.55;34.01465;101603.3;;;;-75
2022/08/25 10:14:37;;;;;;;;;;;;;;;34.76;33.94824;101600.2;;;;-77
2022/08/25 10:17:35;;;;;;;6.2;2.7;;;;;;;;;;;;;-76
2022/08/25 10:19:26;;;;;;;;;;;;;;;35.01;33.81152;101586.1;;;;-75
2022/08/25 10:24:20;;;;;;;;;;;;;;;35.33;33.90723;101589.1;;;;-75
2022/08/25 10:29:27;;;;;;;;;;;;;;;35.57;33.04688;101583.7;;;;-76
2022/08/25 10:34:29;;;;;;;;;;;;;;;35.8;32.80078;101582.2;;;;-75
2022/08/25 10:39:23;;;;;;;;;;;;;;;35.97;32.6709;101575.7;;;;-75
2022/08/25 10:47:53;;;;;;;5.1;2.3;;;;;;;;;;;;;-76
2022/08/25 10:49:21;;;;;;;;;;;;;;;36.44;32.0498;101563.1;;;;-77
2022/08/25 10:54:26;;;;;;;;;;;;;;;36.61;32.26367;101556.6;;;;-76
2022/08/25 10:59:33;;;;;;;;;;;;;;;36.71;31.75977;101541.4;;;;-76
2022/08/25 11:04:24;;;;;;;;;;;;;;;36.86;31.30566;101537;;;;-75
2022/08/25 11:09:22;;;;;;;;;;;;;;;37.05;30.74609;101526.2;;;;-76
2022/08/25 11:14:24;;;;;;;;;;;;;;;37.23;29.97168;101529.5;;;;-76
2022/08/25 11:17:50;;;;;;;6.8;2.4;;;;;;;;;;;;;-75
2022/08/25 11:19:22;;;;;;;;;;;;;;;37.4;31.37793;101524.1;;;;-76
2022/08/25 11:24:26;;;;;;;;;;;;;;;37.66;30.72754;101524.7;;;;-75
2022/08/25 11:29:22;;;;;;;;;;;;;;;37.81;30.88086;101517.4;;;;-74
2022/08/25 11:34:20;;;;;;;;;;;;;;;37.92;30.66113;101517.3;;;;-75
2022/08/25 11:39:28;;;;;;;;;;;;;;;37.9;30.13477;101521.9;;;;-76
2022/08/25 11:44:41;;;;;;;;;;;;;;;37.84;30.1543;101513.3;;;;-76
2022/08/25 11:48:01;;;;;;;3.8;2;;;;;;;;;;;;;-75
2022/08/25 11:49:31;;;;;;;;;;;;;;;37.78;30.3418;101513.1;;;;-76
2022/08/25 11:54:24;;;;;;;;;;;;;;;37.74;31.22168;101516.8;;;;-76
2022/08/25 11:59:30;;;;;;;;;;;;;;;37.68;30.03613;101516.5;;;;-75
2022/08/25 12:04:32;;;;;;;;;;;;;;;37.52;30.69434;101512.5;;;;-76
2022/08/25 12:09:27;;;;;;;;;;;;;;;37.28;30.57129;101503.7;;;;-78
2022/08/25 12:14:34;;;;;;;;;;;;;;;37.07;30.68848;101498.5;;;;-75
2022/08/25 12:18:14;;;;;;;4.5;2;;;;;;;;;;;;;-77
2022/08/25 12:19:30;;;;;;;;;;;;;;;37.04;31.04395;101497.5;;;;-75
2022/08/25 12:24:23;;;;;;;;;;;;;;;37.1;31.44141;101497.3;;;;-76
2022/08/25 12:29:26;;;;;;;;;;;;;;;37.24;31.40332;101499.8;;;;-75
2022/08/25 12:34:35;;;;;;;;;;;;;;;37.44;30.79688;101491.8;;;;-79
2022/08/25 12:39:23;;;;;;;;;;;;;;;37.77;30.56738;101494;;;;-76
2022/08/25 12:44:33;;;;;;;;;;;;;;;38.05;30.16797;101489.4;;;;-76
2022/08/25 12:48:17;;;;;;;3.1;2;;;;;;;;;;;;;-77
2022/08/25 12:49:31;;;;;;;;;;;;;;;38.36;30.64258;101490.4;;;;-76
2022/08/25 12:54:23;;;;;;;;;;;;;;;38.63;30.91211;101483.1;;;;-76
2022/08/25 12:59:22;;;;;;;;;;;;;;;38.91;31.3252;101478.5;;;;-76
2022/08/25 13:04:31;;;;;;;;;;;;;;;39.11;31.08691;101474;;;;-76
2022/08/25 13:09:27;;;;;;;;;;;;;;;39.26;29.81641;101476.2;;;;-77
2022/08/25 13:14:23;;;;;;;;;;;;;;;39.36;30.6377;101473.8;;;;-76
2022/08/25 13:18:25;;;;;;;3;2.1;;;;;;;;;;;;;-76
2022/08/25 13:19:21;;;;;;;;;;;;;;;39.5;31.64063;101475.8;;;;-76
2022/08/25 13:24:22;;;;;;;;;;;;;;;39.71;31.22363;101466.6;;;;-76
2022/08/25 13:29:23;;;;;;;;;;;;;;;39.89;30.63574;101469.6;;;;-75
2022/08/25 13:34:23;;;;;;;;;;;;;;;39.99;30.97852;101463.6;;;;-77
2022/08/25 13:39:22;;;;;;;;;;;;;;;40.06;31.05566;101463.1;;;;-77
2022/08/25 13:44:21;;;;;;;;;;;;;;;40.12;31.22754;101456.9;;;;-75
2022/08/25 13:48:30;;;;;;;4;2.5;;;;;;;;;;;;;-77
2022/08/25 13:49:28;;;;;;;;;;;;;;;40.2;29.99707;101451.2;;;;-76
2022/08/25 13:54:28;;;;;;;;;;;;;;;40.21;30.35742;101450.7;;;;-76
2022/08/25 13:59:27;;;;;;;;;;;;;;;40.24;29.90332;101449;;;;-77
2022/08/25 14:04:28;;;;;;;;;;;;;;;40.36;30.58301;101450.3;;;;-78
2022/08/25 14:09:22;;;;;;;;;;;;;;;40.55;29.41895;101447.8;;;;-77
2022/08/25 14:14:30;;;;;;;;;;;;;;;40.63;29.35156;101449.2;;;;-77
2022/08/25 14:18:31;;;;;;;7.9;2.7;;;;;;;;;;;;;-77
2022/08/25 14:19:23;;;;;;;;;;;;;;;40.54;28.91406;101443.9;;;;-75
2022/08/25 14:24:22;;;;;;;;;;;;;;;40.43;29.0625;101444.9;;;;-74
2022/08/25 14:29:23;;;;;;;;;;;;;;;40.33;29.26074;101446.9;;;;-75
2022/08/25 14:34:22;;;;;;;;;;;;;;;40.23;29.2666;101443.9;;;;-76
2022/08/25 14:39:23;;;;;;;;;;;;;;;40.13;29.30762;101441.3;;;;-75
2022/08/25 14:44:32;;;;;;;;;;;;;;;40.03;29.78223;101441.3;;;;-77
2022/08/25 14:48:38;;;;;;;6.2;3.3;;;;;;;;;;;;;-74
2022/08/25 14:49:24;;;;;;;;;;;;;;;39.96;29.76465;101440.8;;;;-76
2022/08/25 14:54:21;;;;;;;;;;;;;;;39.86;30.11816;101441.4;;;;-75
2022/08/25 14:59:20;;;;;;;;;;;;;;;39.77;29.72852;101446;;;;-76
2022/08/25 15:04:22;;;;;;;;;;;;;;;39.64;29.99707;101442;;;;-76
2022/08/25 15:09:21;;;;;;;;;;;;;;;39.51;30.5625;101443;;;;-74
2022/08/25 15:14:21;;;;;;;;;;;;;;;39.45;30.59473;101437.7;;;;-76
2022/08/25 15:18:41;;;;;;;6.2;3.7;;;;;;;;;;;;;-76
2022/08/25 15:19:22;;;;;;;;;;;;;;;39.37;30.66113;101442.5;;;;-75
2022/08/25 15:24:22;;;;;;;;;;;;;;;39.32;30.64648;101441.1;;;;-75
2022/08/25 15:29:21;;;;;;;;;;;;;;;39.18;30.79297;101438.2;;;;-76
2022/08/25 15:34:20;;;;;;;;;;;;;;;39.07;30.43848;101443.2;;;;-77
2022/08/25 15:39:21;;;;;;;;;;;;;;;38.89;30.36621;101447.9;;;;-76
2022/08/25 15:44:20;;;;;;;;;;;;;;;38.66;30.70996;101447.5;;;;-75
2022/08/25 15:48:48;;;;;;;6.7;4.1;;;;;;;;;;;;;-76
2022/08/25 15:49:20;;;;;;;;;;;;;;;38.36;30.94141;101454.3;;;;-74
2022/08/25 15:54:20;;;;;;;;;;;;;;;37.98;31.29883;101451.3;;;;-76
2022/08/25 15:59:20;;;;;;;;;;;;;;;37.59;31.77246;101447.4;;;;-76
2022/08/25 16:04:22;;;;;;;;;;;;;;;37.23;32.16504;101443.4;;;;-75
2022/08/25 16:09:21;;;;;;;;;;;;;;;36.87;32.44922;101444;;;;-76
2022/08/25 16:14:20;;;;;;;;;;;;;;;36.49;32.81543;101448;;;;-76
2022/08/25 16:18:55;;;;;;;7.2;4.9;;;;;;;;;;;;;-75
2022/08/25 16:19:20;;;;;;;;;;;;;;;36.17;33.24316;101466.4;;;;-75
2022/08/25 16:24:20;;;;;;;;;;;;;;;35.85;33.62402;101465.5;;;;-73
2022/08/25 16:29:20;;;;;;;;;;;;;;;35.51;34.16797;101458.9;;;;-76
2022/08/25 16:34:21;;;;;;;;;;;;;;;35.16;34.52246;101452.2;;;;-75
2022/08/25 16:39:20;;;;;;;;;;;;;;;34.81;34.91016;101449.7;;;;-76
2022/08/25 16:44:20;;;;;;;;;;;;;;;34.42;35.42578;101453;;;;-75
2022/08/25 16:49:02;;;;;;;8.8;5.8;;;;;;;;;;;;;-75
2022/08/25 16:49:20;;;;;;;;;;;;;;;34.02;35.90332;101447.5;;;;-76
2022/08/25 16:59:20;;;;;;;;;;;;;;;33.37;36.52344;101437.2;;;;-76
2022/08/25 17:04:20;;;;;;;;;;;;;;;33.11;36.92773;101432.5;;;;-75
2022/08/25 17:09:26;;;;;;;;;;;;;;;32.86;37.19043;101436;;;;-77
2022/08/25 17:14:21;;;;;;;;;;;;;;;32.64;37.44434;101435.8;;;;-75
2022/08/25 17:19:08;;;;;;;10.1;5.7;;;;;;;;;;;;;-77
2022/08/25 17:19:21;;;;;;;;;;;;;;;32.39;38.11816;101428.9;;;;-75
2022/08/25 17:24:20;;;;;;;;;;;;;;;32.14;38.20313;101427.3;;;;-75
2022/08/25 17:29:20;;;;;;;;;;;;;;;31.87;38.52148;101435.5;;;;-76
2022/08/25 17:34:20;;;;;;;;;;;;;;;31.57;38.48438;101433.6;;;;-74
2022/08/25 17:39:20;;;;;;;;;;;;;;;31.26;38.73926;101443.8;;;;-75
2022/08/25 17:44:20;;;;;;;;;;;;;;;30.93;39.19238;101452.9;;;;-76
2022/08/25 17:49:13;;;;;;;10.5;7.2;;;;;;;;;;;;;-76
2022/08/25 17:49:24;;;;;;;;;;;;;;;30.55;39.70996;101448.9;;;;-75
2022/08/25 17:54:20;;;;;;;;;;;;;;;30.23;39.94043;101459.2;;;;-74
2022/08/25 17:59:20;;;;;;;;;;;;;;;29.9;40.34277;101458.3;;;;-76
2022/08/25 18:04:20;;;;;;;;;;;;;;;29.59;40.55078;101458.6;;;;-76
2022/08/25 18:09:20;;;;;;;;;;;;;;;29.31;41.00293;101463.3;;;;-75
2022/08/25 18:14:20;;;;;;;;;;;;;;;29.01;41.4668;101470.2;;;;-75
2022/08/25 18:19:17;;;;;;;12.5;8;;;;;;;;;;;;;-75
2022/08/25 18:19:27;;;;;;;;;;;;;;;28.68;42.13672;101473.1;;;;-73
2022/08/25 18:24:20;;;;;;;;;;;;;;;28.42;42.66016;101487.1;;;;-75
2022/08/25 18:29:20;;;;;;;;;;;;;;;28.15;43.00684;101486.4;;;;-75
2022/08/25 18:34:20;;;;;;;;;;;;;;;27.86;44.14355;101499.3;;;;-74
2022/08/25 18:44:20;;;;;;;;;;;;;;;27.29;45.19043;101507.5;;;;-75
2022/08/25 18:49:20;;;;;;;;;;;;;;;27.02;46.13867;101504.5;;;;-75
2022/08/25 18:49:35;;;;;;;12.2;8.8;;;;;;;;;;;;;-75
2022/08/25 18:54:23;;;;;;;;;;;;;;;26.77;46.83203;101520.2;;;;-75
2022/08/25 18:59:20;;;;;;;;;;;;;;;26.53;47.11914;101525.8;;;;-75
2022/08/25 19:04:20;;;;;;;;;;;;;;;26.3;47.92969;101524.9;;;;-76
2022/08/25 19:09:21;;;;;;;;;;;;;;;26.09;48.24316;101539.5;;;;-74
2022/08/25 19:14:20;;;;;;;;;;;;;;;25.88;48.53223;101531.8;;;;-72
2022/08/25 19:19:21;;;;;;;;;;;;;;;25.71;48.97656;101531.2;;;;-75
2022/08/25 19:19:30;;;;;;;10.2;6.3;;;;;;;;;;;;;-75
2022/08/25 19:24:21;;;;;;;;;;;;;;;25.55;49.32813;101539.4;;;;-77
2022/08/25 19:29:21;;;;;;;;;;;;;;;25.39;49.84277;101543.6;;;;-76
2022/08/25 19:34:24;;;;;;;;;;;;;;;25.22;50.42383;101549.6;;;;-75
2022/08/25 19:39:20;;;;;;;;;;;;;;;25.06;50.625;101560.3;;;;-75
2022/08/25 19:44:20;;;;;;;;;;;;;;;24.88;51.03223;101563;;;;-75
2022/08/25 19:49:21;;;;;;;;;;;;;;;24.74;51.78711;101576;;;;-76
2022/08/25 19:49:33;;;;;;;10.8;6.2;;;;;;;;;;;;;-76
2022/08/25 19:54:21;;;;;;;;;;;;;;;24.58;52.01172;101568.4;;;;-75
2022/08/25 19:59:21;;;;;;;;;;;;;;;24.44;52.08789;101567.3;;;;-75
2022/08/25 20:04:20;;;;;;;;;;;;;;;24.33;52.22363;101570.1;;;;-76
2022/08/25 20:09:20;;;;;;;;;;;;;;;24.18;52.54102;101579.6;;;;-76
2022/08/25 20:14:20;;;;;;;;;;;;;;;24.06;52.88379;101590.9;;;;-75
2022/08/25 20:19:20;;;;;;;;;;;;;;;23.93;53.61621;101595.2;;;;-76
2022/08/25 20:19:35;;;;;;;13.5;6.6;;;;;;;;;;;;;-74
2022/08/25 20:29:20;;;;;;;;;;;;;;;23.69;54.64355;101601.8;;;;-75
2022/08/25 20:34:20;;;;;;;;;;;;;;;23.6;55.37988;101602.2;;;;-77
2022/08/25 20:39:20;;;;;;;;;;;;;;;23.53;56.08301;101604;;;;-76
2022/08/25 20:44:21;;;;;;;;;;;;;;;23.46;56.24609;101612;;;;-75
2022/08/25 20:49:20;;;;;;;;;;;;;;;23.38;56.59277;101617.8;;;;-74
2022/08/25 20:49:38;;;;;;;8;4.1;;;;;;;;;;;;;-74
2022/08/25 20:54:20;;;;;;;;;;;;;;;23.32;56.88281;101610.4;;;;-75
2022/08/25 20:59:20;;;;;;;;;;;;;;;23.26;57.52832;101614.9;;;;-75
2022/08/25 21:04:21;;;;;;;;;;;;;;;23.2;57.5791;101627.2;;;;-75
2022/08/25 21:09:21;;;;;;;;;;;;;;;23.13;57.9248;101625.6;;;;-75
2022/08/25 21:14:20;;;;;;;;;;;;;;;23.06;58.30469;101627;;;;-76
2022/08/25 21:19:21;;;;;;;;;;;;;;;23.03;58.24316;101625.8;;;;-75
2022/08/25 21:19:40;;;;;;;6.1;2.2;;;;;;;;;;;;;-75
2022/08/25 21:24:20;;;;;;;;;;;;;;;22.97;58.66016;101622.4;;;;-75
2022/08/25 21:29:21;;;;;;;;;;;;;;;22.91;58.69824;101628;;;;-75
2022/08/25 21:34:20;;;;;;;;;;;;;;;22.89;58.87891;101634.6;;;;-76
2022/08/25 21:39:20;;;;;;;;;;;;;;;22.86;59.27637;101633;;;;-75
2022/08/25 21:44:20;;;;;;;;;;;;;;;22.79;59.67773;101630.8;;;;-76
2022/08/25 21:49:20;;;;;;;;;;;;;;;22.76;59.57227;101633;;;;-74
2022/08/25 21:49:44;;;;;;;6.6;1.8;;;;;;;;;;;;;-74
2022/08/25 21:54:20;;;;;;;;;;;;;;;22.74;59.61426;101644.5;;;;-76
2022/08/25 21:59:22;;;;;;;;;;;;;;;22.7;59.71191;101640.8;;;;-76
2022/08/25 22:04:20;;;;;;;;;;;;;;;22.67;60.00586;101646;;;;-76
2022/08/25 22:09:20;;;;;;;;;;;;;;;22.65;59.86523;101646.3;;;;-74
2022/08/25 22:14:20;;;;;;;;;;;;;;;22.62;59.75879;101645.8;;;;-75
2022/08/25 22:19:20;;;;;;;;;;;;;;;22.6;59.66504;101645.5;;;;-75
2022/08/25 22:19:48;;;;;;;4.1;1.6;;;;;;;;;;;;;-76
2022/08/25 22:24:20;;;;;;;;;;;;;;;22.59;59.68555;101646.4;;;;-75
2022/08/25 22:29:21;;;;;;;;;;;;;;;22.54;59.91992;101652;;;;-75
2022/08/25 22:34:20;;;;;;;;;;;;;;;22.52;60.07715;101659.2;;;;-75
2022/08/25 22:39:20;;;;;;;;;;;;;;;22.49;60.02832;101652.9;;;;-75
2022/08/25 22:44:20;;;;;;;;;;;;;;;22.45;60.20605;101658.4;;;;-74
2022/08/25 22:49:20;;;;;;;;;;;;;;;22.43;60.37305;101650.1;;;;-75
2022/08/25 22:49:51;;;;;;;6.7;1.5;;;;;;;;;;;;;-75
2022/08/25 22:54:20;;;;;;;;;;;;;;;22.41;60.42871;101655.1;;;;-75
2022/08/25 22:59:20;;;;;;;;;;;;;;;22.38;60.32129;101654;;;;-76
2022/08/25 23:04:20;;;;;;;;;;;;;;;22.34;60.41895;101657;;;;-74
2022/08/25 23:09:23;;;;;;;;;;;;;;;22.29;60.43555;101667.5;;;;-74
2022/08/25 23:14:20;;;;;;;;;;;;;;;22.24;60.54297;101669.4;;;;-74
2022/08/25 23:19:20;;;;;;;;;;;;;;;22.18;60.53516;101659.4;;;;-76
2022/08/25 23:19:54;;;;;;;4.4;1.4;;;;;;;;;;;;;-74
2022/08/25 23:24:20;;;;;;;;;;;;;;;22.19;60.3877;101670.9;;;;-76
2022/08/25 23:29:20;;;;;;;;;;;;;;;22.18;60.41992;101677.8;;;;-75
2022/08/25 23:34:20;;;;;;;;;;;;;;;22.16;60.50977;101679.3;;;;-75
2022/08/25 23:39:20;;;;;;;;;;;;;;;22.15;60.67871;101674.1;;;;-75
2022/08/25 23:44:20;;;;;;;;;;;;;;;22.13;60.50488;101678.3;;;;-75
2022/08/25 23:49:21;;;;;;;;;;;;;;;22.12;60.65137;101678.7;;;;-74
2022/08/25 23:49:57;;;;;;;5.2;1.3;;;;;;;;;;;;;-76
2022/08/25 23:54:21;;;;;;;;;;;;;;;22.11;60.43359;101678.1;;;;-75
2022/08/25 23:59:20;;;;;;;;;;;;;;;22.1;60.33984;101676.2;;;;-75
